sensor_id;sensor_type;location;lat;lon;timestamp;P1;durP1;ratioP1;P2;durP2;ratioP2
31378;SDS011;61664;48.112;11.662;2022-12-29T00:00:55;0.50;;;0.45;;
31378;SDS011;61664;48.112;11.662;2022-12-29T00:03:22;0.65;;;0.60;;
31378;SDS011;61664;48.112;11.662;2022-12-29T00:05:58;0.43;;;0.40;;
31378;SDS011;61664;48.112;11.662;2022-12-29T00:08:25;0.68;;;0.60;;
31378;SDS011;61664;48.112;11.662;2022-12-29T00:13:43;0.60;;;0.60;;
31378;SDS011;61664;48.112;11.662;2022-12-29T00:16:29;0.30;;;0.30;;
31378;SDS011;61664;48.112;11.662;2022-12-29T00:18:57;0.63;;;0.47;;
31378;SDS011;61664;48.112;11.662;2022-12-29T00:21:24;0.30;;;0.30;;
31378;SDS011;61664;48.112;11.662;2022-12-29T00:24:12;0.38;;;0.32;;
31378;SDS011;61664;48.112;11.662;2022-12-29T00:27:08;0.55;;;0.45;;
31378;SDS011;61664;48.112;11.662;2022-12-29T00:29:57;0.50;;;0.50;;
31378;SDS011;61664;48.112;11.662;2022-12-29T00:32:43;0.55;;;0.50;;
31378;SDS011;61664;48.112;11.662;2022-12-29T00:35:29;0.32;;;0.30;;
31378;SDS011;61664;48.112;11.662;2022-12-29T00:38:26;0.93;;;0.70;;
31378;SDS011;61664;48.112;11.662;2022-12-29T00:41:13;1.15;;;0.70;;
31378;SDS011;61664;48.112;11.662;2022-12-29T00:43:59;1.55;;;0.50;;
31378;SDS011;61664;48.112;11.662;2022-12-29T00:49:05;0.50;;;0.50;;
31378;SDS011;61664;48.112;11.662;2022-12-29T00:51:53;1.50;;;0.50;;
31378;SDS011;61664;48.112;11.662;2022-12-29T00:54:22;0.50;;;0.40;;
31378;SDS011;61664;48.112;11.662;2022-12-29T00:56:50;1.65;;;0.30;;
31378;SDS011;61664;48.112;11.662;2022-12-29T00:59:18;0.40;;;0.40;;
31378;SDS011;61664;48.112;11.662;2022-12-29T01:01:46;1.05;;;0.47;;
31378;SDS011;61664;48.112;11.662;2022-12-29T01:04:14;0.50;;;0.50;;
31378;SDS011;61664;48.112;11.662;2022-12-29T01:06:41;0.60;;;0.57;;
31378;SDS011;61664;48.112;11.662;2022-12-29T01:09:08;0.50;;;0.40;;
31378;SDS011;61664;48.112;11.662;2022-12-29T01:11:55;0.93;;;0.60;;
31378;SDS011;61664;48.112;11.662;2022-12-29T01:14:22;0.43;;;0.40;;
31378;SDS011;61664;48.112;11.662;2022-12-29T01:16:50;0.95;;;0.40;;
31378;SDS011;61664;48.112;11.662;2022-12-29T01:19:18;0.90;;;0.50;;
31378;SDS011;61664;48.112;11.662;2022-12-29T01:21:46;0.63;;;0.43;;
31378;SDS011;61664;48.112;11.662;2022-12-29T01:24:14;0.50;;;0.50;;
31378;SDS011;61664;48.112;11.662;2022-12-29T01:26:43;0.40;;;0.40;;
31378;SDS011;61664;48.112;11.662;2022-12-29T01:29:10;0.30;;;0.30;;
31378;SDS011;61664;48.112;11.662;2022-12-29T01:31:37;0.30;;;0.30;;
31378;SDS011;61664;48.112;11.662;2022-12-29T01:34:05;0.55;;;0.40;;
31378;SDS011;61664;48.112;11.662;2022-12-29T01:36:32;0.40;;;0.30;;
31378;SDS011;61664;48.112;11.662;2022-12-29T01:38:59;0.47;;;0.47;;
31378;SDS011;61664;48.112;11.662;2022-12-29T01:41:26;0.30;;;0.30;;
31378;SDS011;61664;48.112;11.662;2022-12-29T01:43:55;0.70;;;0.50;;
31378;SDS011;61664;48.112;11.662;2022-12-29T01:49:05;0.25;;;0.25;;
31378;SDS011;61664;48.112;11.662;2022-12-29T01:51:45;0.63;;;0.50;;
31378;SDS011;61664;48.112;11.662;2022-12-29T01:54:22;2.22;;;0.40;;
31378;SDS011;61664;48.112;11.662;2022-12-29T01:56:57;0.55;;;0.55;;
31378;SDS011;61664;48.112;11.662;2022-12-29T01:59:31;0.35;;;0.32;;
31378;SDS011;61664;48.112;11.662;2022-12-29T02:02:03;0.40;;;0.20;;
31378;SDS011;61664;48.112;11.662;2022-12-29T02:04:32;0.30;;;0.30;;
31378;SDS011;61664;48.112;11.662;2022-12-29T02:07:01;0.40;;;0.35;;
31378;SDS011;61664;48.112;11.662;2022-12-29T02:09:34;0.20;;;0.20;;
31378;SDS011;61664;48.112;11.662;2022-12-29T02:12:02;0.28;;;0.28;;
31378;SDS011;61664;48.112;11.662;2022-12-29T02:14:29;0.40;;;0.40;;
31378;SDS011;61664;48.112;11.662;2022-12-29T02:31:11;0.43;;;0.30;;
31378;SDS011;61664;48.112;11.662;2022-12-29T02:40:01;0.52;;;0.45;;
31378;SDS011;61664;48.112;11.662;2022-12-29T02:43:44;0.50;;;0.30;;
31378;SDS011;61664;48.112;11.662;2022-12-29T02:48:45;0.20;;;0.20;;
31378;SDS011;61664;48.112;11.662;2022-12-29T02:51:26;1.10;;;0.52;;
31378;SDS011;61664;48.112;11.662;2022-12-29T02:54:04;1.42;;;0.30;;
31378;SDS011;61664;48.112;11.662;2022-12-29T02:56:50;1.25;;;0.32;;
31378;SDS011;61664;48.112;11.662;2022-12-29T02:59:16;0.60;;;0.40;;
31378;SDS011;61664;48.112;11.662;2022-12-29T03:01:58;0.28;;;0.28;;
31378;SDS011;61664;48.112;11.662;2022-12-29T03:13:01;0.45;;;0.40;;
31378;SDS011;61664;48.112;11.662;2022-12-29T03:16:06;0.35;;;0.35;;
31378;SDS011;61664;48.112;11.662;2022-12-29T03:21:57;0.50;;;0.30;;
31378;SDS011;61664;48.112;11.662;2022-12-29T03:24:52;1.85;;;0.22;;
31378;SDS011;61664;48.112;11.662;2022-12-29T03:27:29;0.20;;;0.20;;
31378;SDS011;61664;48.112;11.662;2022-12-29T03:30:22;0.50;;;0.50;;
31378;SDS011;61664;48.112;11.662;2022-12-29T03:32:54;0.35;;;0.30;;
31378;SDS011;61664;48.112;11.662;2022-12-29T03:35:26;0.40;;;0.40;;
31378;SDS011;61664;48.112;11.662;2022-12-29T03:38:02;0.40;;;0.40;;
31378;SDS011;61664;48.112;11.662;2022-12-29T03:40:44;0.40;;;0.40;;
31378;SDS011;61664;48.112;11.662;2022-12-29T03:43:16;0.30;;;0.30;;
31378;SDS011;61664;48.112;11.662;2022-12-29T03:45:44;0.57;;;0.32;;
31378;SDS011;61664;48.112;11.662;2022-12-29T03:48:11;0.40;;;0.30;;
31378;SDS011;61664;48.112;11.662;2022-12-29T03:50:38;0.40;;;0.40;;
31378;SDS011;61664;48.112;11.662;2022-12-29T03:53:05;0.50;;;0.30;;
31378;SDS011;61664;48.112;11.662;2022-12-29T03:55:32;0.30;;;0.30;;
31378;SDS011;61664;48.112;11.662;2022-12-29T03:57:59;0.40;;;0.40;;
31378;SDS011;61664;48.112;11.662;2022-12-29T04:00:26;0.30;;;0.22;;
31378;SDS011;61664;48.112;11.662;2022-12-29T04:02:53;0.63;;;0.40;;
31378;SDS011;61664;48.112;11.662;2022-12-29T04:05:20;0.40;;;0.30;;
31378;SDS011;61664;48.112;11.662;2022-12-29T04:07:47;0.50;;;0.50;;
31378;SDS011;61664;48.112;11.662;2022-12-29T04:10:14;0.40;;;0.40;;
31378;SDS011;61664;48.112;11.662;2022-12-29T04:12:41;0.30;;;0.30;;
31378;SDS011;61664;48.112;11.662;2022-12-29T04:15:09;0.80;;;0.38;;
31378;SDS011;61664;48.112;11.662;2022-12-29T04:17:36;0.60;;;0.40;;
31378;SDS011;61664;48.112;11.662;2022-12-29T04:20:03;0.40;;;0.40;;
31378;SDS011;61664;48.112;11.662;2022-12-29T04:22:49;0.40;;;0.40;;
31378;SDS011;61664;48.112;11.662;2022-12-29T04:25:24;0.40;;;0.40;;
31378;SDS011;61664;48.112;11.662;2022-12-29T04:27:51;0.22;;;0.22;;
31378;SDS011;61664;48.112;11.662;2022-12-29T04:30:18;1.55;;;0.40;;
31378;SDS011;61664;48.112;11.662;2022-12-29T04:32:45;0.40;;;0.32;;
31378;SDS011;61664;48.112;11.662;2022-12-29T04:35:12;0.28;;;0.28;;
31378;SDS011;61664;48.112;11.662;2022-12-29T04:37:39;0.55;;;0.30;;
31378;SDS011;61664;48.112;11.662;2022-12-29T04:40:06;0.28;;;0.28;;
31378;SDS011;61664;48.112;11.662;2022-12-29T04:42:34;1.00;;;0.40;;
31378;SDS011;61664;48.112;11.662;2022-12-29T04:45:01;0.50;;;0.38;;
31378;SDS011;61664;48.112;11.662;2022-12-29T04:47:28;0.40;;;0.40;;
31378;SDS011;61664;48.112;11.662;2022-12-29T04:49:55;0.50;;;0.40;;
31378;SDS011;61664;48.112;11.662;2022-12-29T04:52:22;0.30;;;0.28;;
31378;SDS011;61664;48.112;11.662;2022-12-29T04:54:49;0.32;;;0.20;;
31378;SDS011;61664;48.112;11.662;2022-12-29T04:57:15;0.30;;;0.30;;
31378;SDS011;61664;48.112;11.662;2022-12-29T04:59:42;1.15;;;0.40;;
31378;SDS011;61664;48.112;11.662;2022-12-29T05:02:09;0.43;;;0.30;;
31378;SDS011;61664;48.112;11.662;2022-12-29T05:04:36;0.50;;;0.30;;
31378;SDS011;61664;48.112;11.662;2022-12-29T05:07:03;0.88;;;0.50;;
31378;SDS011;61664;48.112;11.662;2022-12-29T05:09:30;0.47;;;0.45;;
31378;SDS011;61664;48.112;11.662;2022-12-29T05:11:57;1.70;;;0.40;;
31378;SDS011;61664;48.112;11.662;2022-12-29T05:14:24;0.40;;;0.38;;
31378;SDS011;61664;48.112;11.662;2022-12-29T05:16:51;0.30;;;0.30;;
31378;SDS011;61664;48.112;11.662;2022-12-29T05:19:18;1.23;;;0.35;;
31378;SDS011;61664;48.112;11.662;2022-12-29T05:21:45;0.60;;;0.40;;
31378;SDS011;61664;48.112;11.662;2022-12-29T05:24:12;0.35;;;0.30;;
31378;SDS011;61664;48.112;11.662;2022-12-29T05:26:39;0.57;;;0.30;;
31378;SDS011;61664;48.112;11.662;2022-12-29T05:29:06;0.40;;;0.40;;
31378;SDS011;61664;48.112;11.662;2022-12-29T05:31:33;0.32;;;0.32;;
31378;SDS011;61664;48.112;11.662;2022-12-29T05:34:02;0.68;;;0.40;;
31378;SDS011;61664;48.112;11.662;2022-12-29T05:36:29;0.30;;;0.30;;
31378;SDS011;61664;48.112;11.662;2022-12-29T05:39:03;0.45;;;0.22;;
31378;SDS011;61664;48.112;11.662;2022-12-29T05:41:30;1.77;;;0.40;;
31378;SDS011;61664;48.112;11.662;2022-12-29T05:43:57;0.60;;;0.20;;
31378;SDS011;61664;48.112;11.662;2022-12-29T05:46:23;0.30;;;0.30;;
31378;SDS011;61664;48.112;11.662;2022-12-29T05:48:50;0.30;;;0.30;;
31378;SDS011;61664;48.112;11.662;2022-12-29T05:51:17;0.40;;;0.35;;
31378;SDS011;61664;48.112;11.662;2022-12-29T05:53:44;0.55;;;0.30;;
31378;SDS011;61664;48.112;11.662;2022-12-29T05:56:11;0.30;;;0.30;;
31378;SDS011;61664;48.112;11.662;2022-12-29T05:58:38;0.93;;;0.50;;
31378;SDS011;61664;48.112;11.662;2022-12-29T06:01:05;0.50;;;0.30;;
31378;SDS011;61664;48.112;11.662;2022-12-29T06:03:32;0.60;;;0.50;;
31378;SDS011;61664;48.112;11.662;2022-12-29T06:05:59;0.30;;;0.30;;
31378;SDS011;61664;48.112;11.662;2022-12-29T06:08:25;0.30;;;0.30;;
31378;SDS011;61664;48.112;11.662;2022-12-29T06:10:53;0.50;;;0.50;;
31378;SDS011;61664;48.112;11.662;2022-12-29T06:13:19;7.28;;;0.50;;
31378;SDS011;61664;48.112;11.662;2022-12-29T06:15:48;0.50;;;0.40;;
31378;SDS011;61664;48.112;11.662;2022-12-29T06:18:15;0.40;;;0.40;;
31378;SDS011;61664;48.112;11.662;2022-12-29T06:20:45;0.20;;;0.20;;
31378;SDS011;61664;48.112;11.662;2022-12-29T06:23:12;0.20;;;0.20;;
31378;SDS011;61664;48.112;11.662;2022-12-29T06:25:39;0.90;;;0.30;;
31378;SDS011;61664;48.112;11.662;2022-12-29T06:28:06;0.73;;;0.50;;
31378;SDS011;61664;48.112;11.662;2022-12-29T06:30:33;0.57;;;0.40;;
31378;SDS011;61664;48.112;11.662;2022-12-29T06:33:00;0.20;;;0.20;;
31378;SDS011;61664;48.112;11.662;2022-12-29T06:35:27;0.30;;;0.30;;
31378;SDS011;61664;48.112;11.662;2022-12-29T06:37:54;0.35;;;0.35;;
31378;SDS011;61664;48.112;11.662;2022-12-29T06:40:20;0.70;;;0.50;;
31378;SDS011;61664;48.112;11.662;2022-12-29T06:42:48;0.20;;;0.20;;
31378;SDS011;61664;48.112;11.662;2022-12-29T06:45:14;0.60;;;0.40;;
31378;SDS011;61664;48.112;11.662;2022-12-29T06:47:42;0.30;;;0.30;;
31378;SDS011;61664;48.112;11.662;2022-12-29T06:50:09;0.40;;;0.40;;
31378;SDS011;61664;48.112;11.662;2022-12-29T06:52:36;0.47;;;0.43;;
31378;SDS011;61664;48.112;11.662;2022-12-29T06:55:03;0.30;;;0.30;;
31378;SDS011;61664;48.112;11.662;2022-12-29T06:57:30;0.30;;;0.30;;
31378;SDS011;61664;48.112;11.662;2022-12-29T06:59:57;1.65;;;0.65;;
31378;SDS011;61664;48.112;11.662;2022-12-29T07:02:24;0.52;;;0.32;;
31378;SDS011;61664;48.112;11.662;2022-12-29T07:04:52;0.43;;;0.40;;
31378;SDS011;61664;48.112;11.662;2022-12-29T07:07:19;1.50;;;0.75;;
31378;SDS011;61664;48.112;11.662;2022-12-29T07:09:47;1.73;;;1.08;;
31378;SDS011;61664;48.112;11.662;2022-12-29T07:12:14;0.60;;;0.60;;
31378;SDS011;61664;48.112;11.662;2022-12-29T07:14:41;0.73;;;0.60;;
31378;SDS011;61664;48.112;11.662;2022-12-29T07:17:09;0.55;;;0.50;;
31378;SDS011;61664;48.112;11.662;2022-12-29T07:19:36;0.82;;;0.57;;
31378;SDS011;61664;48.112;11.662;2022-12-29T07:22:03;0.47;;;0.47;;
31378;SDS011;61664;48.112;11.662;2022-12-29T07:24:29;0.77;;;0.50;;
31378;SDS011;61664;48.112;11.662;2022-12-29T07:26:56;0.70;;;0.57;;
31378;SDS011;61664;48.112;11.662;2022-12-29T07:29:23;1.15;;;0.60;;
31378;SDS011;61664;48.112;11.662;2022-12-29T07:31:50;0.73;;;0.73;;
31378;SDS011;61664;48.112;11.662;2022-12-29T07:34:17;0.70;;;0.60;;
31378;SDS011;61664;48.112;11.662;2022-12-29T07:36:44;0.93;;;0.70;;
31378;SDS011;61664;48.112;11.662;2022-12-29T07:39:11;1.02;;;0.68;;
31378;SDS011;61664;48.112;11.662;2022-12-29T07:41:38;0.50;;;0.50;;
31378;SDS011;61664;48.112;11.662;2022-12-29T07:44:05;0.63;;;0.50;;
31378;SDS011;61664;48.112;11.662;2022-12-29T07:46:32;0.70;;;0.70;;
31378;SDS011;61664;48.112;11.662;2022-12-29T07:49:19;0.52;;;0.52;;
31378;SDS011;61664;48.112;11.662;2022-12-29T07:51:46;7.68;;;1.02;;
31378;SDS011;61664;48.112;11.662;2022-12-29T07:54:13;2.33;;;1.50;;
31378;SDS011;61664;48.112;11.662;2022-12-29T07:56:39;2.05;;;0.98;;
31378;SDS011;61664;48.112;11.662;2022-12-29T07:59:06;0.80;;;0.73;;
31378;SDS011;61664;48.112;11.662;2022-12-29T08:01:33;0.63;;;0.57;;
31378;SDS011;61664;48.112;11.662;2022-12-29T08:04:00;0.90;;;0.80;;
31378;SDS011;61664;48.112;11.662;2022-12-29T08:06:27;0.40;;;0.40;;
31378;SDS011;61664;48.112;11.662;2022-12-29T08:08:56;0.50;;;0.50;;
31378;SDS011;61664;48.112;11.662;2022-12-29T08:11:31;0.90;;;0.70;;
31378;SDS011;61664;48.112;11.662;2022-12-29T08:13:58;0.80;;;0.80;;
31378;SDS011;61664;48.112;11.662;2022-12-29T08:16:24;1.55;;;1.45;;
31378;SDS011;61664;48.112;11.662;2022-12-29T08:18:52;1.45;;;1.35;;
31378;SDS011;61664;48.112;11.662;2022-12-29T08:21:18;1.23;;;0.82;;
31378;SDS011;61664;48.112;11.662;2022-12-29T08:23:46;0.90;;;0.80;;
31378;SDS011;61664;48.112;11.662;2022-12-29T08:26:13;0.77;;;0.77;;
31378;SDS011;61664;48.112;11.662;2022-12-29T08:28:40;0.65;;;0.60;;
31378;SDS011;61664;48.112;11.662;2022-12-29T08:31:07;1.10;;;0.77;;
31378;SDS011;61664;48.112;11.662;2022-12-29T08:33:34;2.25;;;1.08;;
31378;SDS011;61664;48.112;11.662;2022-12-29T08:36:02;0.70;;;0.52;;
31378;SDS011;61664;48.112;11.662;2022-12-29T08:38:32;1.45;;;0.60;;
31378;SDS011;61664;48.112;11.662;2022-12-29T08:40:59;0.65;;;0.47;;
31378;SDS011;61664;48.112;11.662;2022-12-29T08:43:29;2.58;;;0.50;;
31378;SDS011;61664;48.112;11.662;2022-12-29T08:45:57;0.50;;;0.50;;
31378;SDS011;61664;48.112;11.662;2022-12-29T08:48:25;0.68;;;0.52;;
31378;SDS011;61664;48.112;11.662;2022-12-29T08:50:53;1.23;;;0.60;;
31378;SDS011;61664;48.112;11.662;2022-12-29T08:53:20;1.17;;;0.82;;
31378;SDS011;61664;48.112;11.662;2022-12-29T08:55:47;0.70;;;0.70;;
31378;SDS011;61664;48.112;11.662;2022-12-29T08:58:30;1.00;;;0.80;;
31378;SDS011;61664;48.112;11.662;2022-12-29T09:00:58;0.50;;;0.45;;
31378;SDS011;61664;48.112;11.662;2022-12-29T09:03:26;0.50;;;0.50;;
31378;SDS011;61664;48.112;11.662;2022-12-29T09:06:14;0.70;;;0.57;;
31378;SDS011;61664;48.112;11.662;2022-12-29T09:08:43;0.90;;;0.60;;
31378;SDS011;61664;48.112;11.662;2022-12-29T09:11:12;4.13;;;1.40;;
31378;SDS011;61664;48.112;11.662;2022-12-29T09:13:45;0.63;;;0.55;;
31378;SDS011;61664;48.112;11.662;2022-12-29T09:16:13;2.35;;;2.00;;
31378;SDS011;61664;48.112;11.662;2022-12-29T09:18:41;1.00;;;0.68;;
31378;SDS011;61664;48.112;11.662;2022-12-29T09:21:10;0.70;;;0.60;;
31378;SDS011;61664;48.112;11.662;2022-12-29T09:23:38;0.60;;;0.60;;
31378;SDS011;61664;48.112;11.662;2022-12-29T09:26:06;0.60;;;0.60;;
31378;SDS011;61664;48.112;11.662;2022-12-29T09:28:34;1.00;;;0.80;;
31378;SDS011;61664;48.112;11.662;2022-12-29T09:31:01;0.70;;;0.70;;
31378;SDS011;61664;48.112;11.662;2022-12-29T09:33:28;0.77;;;0.57;;
31378;SDS011;61664;48.112;11.662;2022-12-29T09:35:56;0.73;;;0.73;;
31378;SDS011;61664;48.112;11.662;2022-12-29T09:38:25;0.60;;;0.60;;
31378;SDS011;61664;48.112;11.662;2022-12-29T09:40:54;0.60;;;0.60;;
31378;SDS011;61664;48.112;11.662;2022-12-29T09:46:26;0.57;;;0.57;;
31378;SDS011;61664;48.112;11.662;2022-12-29T09:49:08;0.70;;;0.60;;
31378;SDS011;61664;48.112;11.662;2022-12-29T09:51:55;0.50;;;0.50;;
31378;SDS011;61664;48.112;11.662;2022-12-29T10:00:03;0.93;;;0.60;;
31378;SDS011;61664;48.112;11.662;2022-12-29T10:02:44;0.50;;;0.50;;
31378;SDS011;61664;48.112;11.662;2022-12-29T10:10:53;0.95;;;0.80;;
31378;SDS011;61664;48.112;11.662;2022-12-29T10:13:27;1.45;;;0.60;;
31378;SDS011;61664;48.112;11.662;2022-12-29T10:19:03;0.73;;;0.68;;
31378;SDS011;61664;48.112;11.662;2022-12-29T10:24:39;0.40;;;0.40;;
31378;SDS011;61664;48.112;11.662;2022-12-29T10:27:10;1.05;;;0.60;;
31378;SDS011;61664;48.112;11.662;2022-12-29T10:29:44;1.02;;;0.70;;
31378;SDS011;61664;48.112;11.662;2022-12-29T10:32:30;0.80;;;0.55;;
31378;SDS011;61664;48.112;11.662;2022-12-29T10:35:22;0.85;;;0.70;;
31378;SDS011;61664;48.112;11.662;2022-12-29T10:40:43;1.58;;;0.60;;
31378;SDS011;61664;48.112;11.662;2022-12-29T10:43:28;1.08;;;0.68;;
31378;SDS011;61664;48.112;11.662;2022-12-29T10:46:05;0.47;;;0.47;;
31378;SDS011;61664;48.112;11.662;2022-12-29T10:48:39;0.38;;;0.38;;
31378;SDS011;61664;48.112;11.662;2022-12-29T10:51:07;0.60;;;0.60;;
31378;SDS011;61664;48.112;11.662;2022-12-29T10:53:38;0.80;;;0.47;;
31378;SDS011;61664;48.112;11.662;2022-12-29T10:56:48;0.30;;;0.30;;
31378;SDS011;61664;48.112;11.662;2022-12-29T11:01:55;0.30;;;0.30;;
31378;SDS011;61664;48.112;11.662;2022-12-29T11:07:05;0.50;;;0.50;;
31378;SDS011;61664;48.112;11.662;2022-12-29T11:09:41;0.38;;;0.28;;
31378;SDS011;61664;48.112;11.662;2022-12-29T11:17:43;0.77;;;0.60;;
31378;SDS011;61664;48.112;11.662;2022-12-29T11:23:01;0.65;;;0.50;;
31378;SDS011;61664;48.112;11.662;2022-12-29T11:25:30;0.47;;;0.30;;
31378;SDS011;61664;48.112;11.662;2022-12-29T11:28:03;0.50;;;0.30;;
31378;SDS011;61664;48.112;11.662;2022-12-29T11:30:43;1.42;;;0.50;;
31378;SDS011;61664;48.112;11.662;2022-12-29T11:33:10;0.50;;;0.50;;
31378;SDS011;61664;48.112;11.662;2022-12-29T11:35:41;0.93;;;0.60;;
31378;SDS011;61664;48.112;11.662;2022-12-29T11:38:20;0.30;;;0.30;;
31378;SDS011;61664;48.112;11.662;2022-12-29T11:40:52;0.50;;;0.40;;
31378;SDS011;61664;48.112;11.662;2022-12-29T11:43:37;0.35;;;0.35;;
31378;SDS011;61664;48.112;11.662;2022-12-29T11:46:14;0.63;;;0.63;;
31378;SDS011;61664;48.112;11.662;2022-12-29T11:48:45;0.20;;;0.20;;
31378;SDS011;61664;48.112;11.662;2022-12-29T11:51:21;0.95;;;0.30;;
31378;SDS011;61664;48.112;11.662;2022-12-29T11:53:54;0.40;;;0.30;;
31378;SDS011;61664;48.112;11.662;2022-12-29T11:56:35;0.30;;;0.30;;
31378;SDS011;61664;48.112;11.662;2022-12-29T12:01:56;0.50;;;0.40;;
31378;SDS011;61664;48.112;11.662;2022-12-29T12:04:30;0.57;;;0.30;;
31378;SDS011;61664;48.112;11.662;2022-12-29T12:07:04;0.40;;;0.40;;
31378;SDS011;61664;48.112;11.662;2022-12-29T12:09:51;0.75;;;0.40;;
31378;SDS011;61664;48.112;11.662;2022-12-29T12:12:34;0.52;;;0.40;;
31378;SDS011;61664;48.112;11.662;2022-12-29T12:15:16;1.90;;;0.55;;
31378;SDS011;61664;48.112;11.662;2022-12-29T12:17:55;1.05;;;0.50;;
31378;SDS011;61664;48.112;11.662;2022-12-29T12:20:39;0.35;;;0.30;;
31378;SDS011;61664;48.112;11.662;2022-12-29T12:23:32;0.45;;;0.45;;
31378;SDS011;61664;48.112;11.662;2022-12-29T12:26:18;0.73;;;0.60;;
31378;SDS011;61664;48.112;11.662;2022-12-29T12:29:10;0.40;;;0.30;;
31378;SDS011;61664;48.112;11.662;2022-12-29T12:31:53;0.30;;;0.30;;
31378;SDS011;61664;48.112;11.662;2022-12-29T12:34:33;0.38;;;0.30;;
31378;SDS011;61664;48.112;11.662;2022-12-29T12:49:27;0.45;;;0.45;;
31378;SDS011;61664;48.112;11.662;2022-12-29T12:57:49;0.45;;;0.40;;
31378;SDS011;61664;48.112;11.662;2022-12-29T13:00:28;0.85;;;0.60;;
31378;SDS011;61664;48.112;11.662;2022-12-29T13:03:59;1.92;;;0.60;;
31378;SDS011;61664;48.112;11.662;2022-12-29T13:06:26;0.40;;;0.40;;
31378;SDS011;61664;48.112;11.662;2022-12-29T13:15:32;0.57;;;0.30;;
31378;SDS011;61664;48.112;11.662;2022-12-29T13:22:02;1.55;;;0.57;;
31378;SDS011;61664;48.112;11.662;2022-12-29T13:24:53;0.60;;;0.40;;
31378;SDS011;61664;48.112;11.662;2022-12-29T13:31:05;0.20;;;0.20;;
31378;SDS011;61664;48.112;11.662;2022-12-29T13:34:09;0.30;;;0.30;;
31378;SDS011;61664;48.112;11.662;2022-12-29T13:37:15;0.60;;;0.43;;
31378;SDS011;61664;48.112;11.662;2022-12-29T13:39:51;0.47;;;0.38;;
31378;SDS011;61664;48.112;11.662;2022-12-29T13:42:23;0.45;;;0.45;;
31378;SDS011;61664;48.112;11.662;2022-12-29T13:44:57;1.60;;;0.70;;
31378;SDS011;61664;48.112;11.662;2022-12-29T13:50:19;1.52;;;0.40;;
31378;SDS011;61664;48.112;11.662;2022-12-29T13:58:57;1.20;;;0.82;;
31378;SDS011;61664;48.112;11.662;2022-12-29T14:04:14;2.05;;;1.95;;
31378;SDS011;61664;48.112;11.662;2022-12-29T14:09:45;1.10;;;0.50;;
31378;SDS011;61664;48.112;11.662;2022-12-29T14:17:37;1.45;;;1.10;;
31378;SDS011;61664;48.112;11.662;2022-12-29T14:20:15;1.17;;;1.00;;
31378;SDS011;61664;48.112;11.662;2022-12-29T14:23:15;0.50;;;0.40;;
31378;SDS011;61664;48.112;11.662;2022-12-29T14:26:14;1.80;;;1.02;;
31378;SDS011;61664;48.112;11.662;2022-12-29T14:39:31;8.52;;;3.70;;
31378;SDS011;61664;48.112;11.662;2022-12-29T14:44:51;8.85;;;3.90;;
31378;SDS011;61664;48.112;11.662;2022-12-29T14:47:31;9.20;;;5.00;;
31378;SDS011;61664;48.112;11.662;2022-12-29T15:00:57;1.13;;;1.00;;
31378;SDS011;61664;48.112;11.662;2022-12-29T15:03:30;2.30;;;1.10;;
31378;SDS011;61664;48.112;11.662;2022-12-29T15:06:05;0.80;;;0.63;;
31378;SDS011;61664;48.112;11.662;2022-12-29T15:08:58;1.10;;;0.80;;
31378;SDS011;61664;48.112;11.662;2022-12-29T15:11:52;0.60;;;0.60;;
31378;SDS011;61664;48.112;11.662;2022-12-29T15:14:28;0.93;;;0.63;;
31378;SDS011;61664;48.112;11.662;2022-12-29T15:19:58;0.55;;;0.55;;
31378;SDS011;61664;48.112;11.662;2022-12-29T15:22:47;0.68;;;0.60;;
31378;SDS011;61664;48.112;11.662;2022-12-29T15:25:26;1.40;;;0.80;;
31378;SDS011;61664;48.112;11.662;2022-12-29T15:27:56;0.65;;;0.55;;
31378;SDS011;61664;48.112;11.662;2022-12-29T15:30:32;1.00;;;0.70;;
31378;SDS011;61664;48.112;11.662;2022-12-29T15:32:59;10.00;;;0.93;;
31378;SDS011;61664;48.112;11.662;2022-12-29T15:38:21;0.60;;;0.60;;
31378;SDS011;61664;48.112;11.662;2022-12-29T15:41:04;0.50;;;0.47;;
31378;SDS011;61664;48.112;11.662;2022-12-29T15:44:06;0.98;;;0.60;;
31378;SDS011;61664;48.112;11.662;2022-12-29T15:46:44;1.00;;;0.90;;
31378;SDS011;61664;48.112;11.662;2022-12-29T15:49:11;0.73;;;0.70;;
31378;SDS011;61664;48.112;11.662;2022-12-29T15:51:41;0.80;;;0.50;;
31378;SDS011;61664;48.112;11.662;2022-12-29T15:54:15;3.55;;;0.77;;
31378;SDS011;61664;48.112;11.662;2022-12-29T15:56:48;0.50;;;0.50;;
31378;SDS011;61664;48.112;11.662;2022-12-29T15:59:27;0.43;;;0.43;;
31378;SDS011;61664;48.112;11.662;2022-12-29T16:01:58;0.70;;;0.50;;
31378;SDS011;61664;48.112;11.662;2022-12-29T16:04:35;0.70;;;0.55;;
31378;SDS011;61664;48.112;11.662;2022-12-29T16:07:29;1.10;;;0.73;;
31378;SDS011;61664;48.112;11.662;2022-12-29T16:10:21;0.77;;;0.63;;
31378;SDS011;61664;48.112;11.662;2022-12-29T16:16:08;1.15;;;1.05;;
31378;SDS011;61664;48.112;11.662;2022-12-29T16:18:44;1.40;;;1.30;;
31378;SDS011;61664;48.112;11.662;2022-12-29T16:21:28;0.98;;;0.85;;
31378;SDS011;61664;48.112;11.662;2022-12-29T16:24:12;1.52;;;1.42;;
31378;SDS011;61664;48.112;11.662;2022-12-29T16:29:49;2.10;;;1.90;;
31378;SDS011;61664;48.112;11.662;2022-12-29T16:32:26;2.10;;;1.90;;
31378;SDS011;61664;48.112;11.662;2022-12-29T16:38:06;3.75;;;0.77;;
31378;SDS011;61664;48.112;11.662;2022-12-29T16:40:53;1.10;;;0.88;;
31378;SDS011;61664;48.112;11.662;2022-12-29T16:43:30;1.13;;;1.02;;
31378;SDS011;61664;48.112;11.662;2022-12-29T16:48:28;2.08;;;1.80;;
31378;SDS011;61664;48.112;11.662;2022-12-29T16:51:01;1.45;;;1.33;;
31378;SDS011;61664;48.112;11.662;2022-12-29T16:54:01;1.40;;;1.30;;
31378;SDS011;61664;48.112;11.662;2022-12-29T16:56:29;1.50;;;1.40;;
31378;SDS011;61664;48.112;11.662;2022-12-29T17:01:36;1.58;;;1.08;;
31378;SDS011;61664;48.112;11.662;2022-12-29T17:04:06;0.90;;;0.90;;
31378;SDS011;61664;48.112;11.662;2022-12-29T17:06:38;1.02;;;1.00;;
31378;SDS011;61664;48.112;11.662;2022-12-29T17:09:16;2.78;;;1.00;;
31378;SDS011;61664;48.112;11.662;2022-12-29T17:11:52;2.92;;;1.10;;
31378;SDS011;61664;48.112;11.662;2022-12-29T17:17:04;1.40;;;1.30;;
31378;SDS011;61664;48.112;11.662;2022-12-29T17:19:38;2.30;;;1.20;;
31378;SDS011;61664;48.112;11.662;2022-12-29T17:22:12;1.95;;;1.20;;
31378;SDS011;61664;48.112;11.662;2022-12-29T17:24:54;1.35;;;1.25;;
31378;SDS011;61664;48.112;11.662;2022-12-29T17:27:26;1.10;;;1.00;;
31378;SDS011;61664;48.112;11.662;2022-12-29T17:30:04;1.25;;;1.10;;
31378;SDS011;61664;48.112;11.662;2022-12-29T17:35:23;1.05;;;1.00;;
31378;SDS011;61664;48.112;11.662;2022-12-29T17:37:51;1.38;;;1.02;;
31378;SDS011;61664;48.112;11.662;2022-12-29T17:40:19;1.48;;;1.38;;
31378;SDS011;61664;48.112;11.662;2022-12-29T17:42:51;2.30;;;1.63;;
31378;SDS011;61664;48.112;11.662;2022-12-29T17:45:24;7.22;;;2.10;;
31378;SDS011;61664;48.112;11.662;2022-12-29T17:47:55;1.65;;;1.45;;
31378;SDS011;61664;48.112;11.662;2022-12-29T17:50:27;1.15;;;1.00;;
31378;SDS011;61664;48.112;11.662;2022-12-29T17:52:58;2.97;;;2.67;;
31378;SDS011;61664;48.112;11.662;2022-12-29T17:55:29;5.60;;;4.30;;
31378;SDS011;61664;48.112;11.662;2022-12-29T17:58:25;3.92;;;2.78;;
31378;SDS011;61664;48.112;11.662;2022-12-29T18:00:54;2.10;;;1.90;;
31378;SDS011;61664;48.112;11.662;2022-12-29T18:03:26;1.48;;;1.38;;
31378;SDS011;61664;48.112;11.662;2022-12-29T18:06:00;2.20;;;1.70;;
31378;SDS011;61664;48.112;11.662;2022-12-29T18:08:31;1.65;;;1.52;;
31378;SDS011;61664;48.112;11.662;2022-12-29T18:11:00;4.78;;;2.97;;
31378;SDS011;61664;48.112;11.662;2022-12-29T18:13:28;4.95;;;4.55;;